createdAt,value
2022-11-30T00:00:08.516Z,41.50
2022-11-30T00:01:08.511Z,42.80
2022-11-30T00:02:08.626Z,41.20
2022-11-30T00:03:08.633Z,41.60
2022-11-30T00:04:08.552Z,43.30
2022-11-30T00:05:08.497Z,40.40
2022-11-30T00:06:08.473Z,42.70
2022-11-30T00:07:08.454Z,40.20
2022-11-30T00:08:08.481Z,40.60
2022-11-30T00:09:08.456Z,40.10
2022-11-30T00:10:08.494Z,42.20
2022-11-30T00:11:08.436Z,41.30
2022-11-30T00:12:08.418Z,38.40
2022-11-30T00:13:08.411Z,43.30
2022-11-30T00:14:08.412Z,42.10
2022-11-30T00:15:08.379Z,39.80
2022-11-30T00:16:08.451Z,39.60
2022-11-30T00:17:08.429Z,40.20
2022-11-30T00:18:08.373Z,41.40
2022-11-30T00:19:08.373Z,39.90
2022-11-30T00:20:08.398Z,40.70
2022-11-30T00:21:08.355Z,38.50
2022-11-30T00:22:08.416Z,38.80
2022-11-30T00:23:08.384Z,39.80
2022-11-30T00:24:08.343Z,38.70
2022-11-30T00:25:08.336Z,40.00
2022-11-30T00:26:08.379Z,40.80
2022-11-30T00:27:08.304Z,43.70
2022-11-30T00:28:08.365Z,41.40
2022-11-30T00:29:08.299Z,40.20
2022-11-30T00:30:08.314Z,41.20
2022-11-30T00:31:08.347Z,41.90
2022-11-30T00:32:08.296Z,42.60
2022-11-30T00:33:08.263Z,42.50
2022-11-30T00:34:08.331Z,42.20
2022-11-30T00:35:08.278Z,41.60
2022-11-30T00:36:08.280Z,43.80
2022-11-30T00:37:08.256Z,42.90
2022-11-30T00:38:08.260Z,42.50
2022-11-30T00:39:08.236Z,42.30
2022-11-30T00:40:08.292Z,43.40
2022-11-30T00:41:08.215Z,43.00
2022-11-30T00:42:08.233Z,42.40
2022-11-30T00:43:08.211Z,47.30
2022-11-30T00:44:08.212Z,42.20
2022-11-30T00:45:08.214Z,44.20
2022-11-30T00:46:08.675Z,43.20
2022-11-30T00:47:08.177Z,43.40
2022-11-30T00:48:08.173Z,43.60
2022-11-30T00:49:08.174Z,42.40
2022-11-30T00:50:08.141Z,43.60
2022-11-30T00:51:08.157Z,40.30
2022-11-30T00:52:08.219Z,39.70
2022-11-30T00:53:08.139Z,41.60
2022-11-30T00:54:08.121Z,39.30
2022-11-30T00:55:08.137Z,38.50
2022-11-30T00:56:08.134Z,40.00
2022-11-30T00:57:08.115Z,37.00
2022-11-30T00:58:08.143Z,38.10
2022-11-30T00:59:08.172Z,39.60
2022-11-30T01:00:08.094Z,39.70
2022-11-30T01:01:08.136Z,39.50
2022-11-30T01:02:08.161Z,38.90
2022-11-30T01:03:08.050Z,39.50
2022-11-30T01:04:08.164Z,40.10
2022-11-30T01:05:08.043Z,38.10
2022-11-30T01:06:08.041Z,39.00
2022-11-30T01:07:08.033Z,38.20
2022-11-30T01:08:08.051Z,37.90
2022-11-30T01:09:08.048Z,37.20
2022-11-30T01:10:08.073Z,38.00
2022-11-30T01:11:08.023Z,38.60
2022-11-30T01:12:08.025Z,38.70
2022-11-30T01:13:08.046Z,37.60
2022-11-30T01:14:07.997Z,37.00
2022-11-30T01:15:07.972Z,36.50
2022-11-30T01:16:08.092Z,35.40
2022-11-30T01:17:07.946Z,37.50
2022-11-30T01:18:07.965Z,35.80
2022-11-30T01:19:08.020Z,38.40
2022-11-30T01:20:07.981Z,35.30
2022-11-30T01:21:07.958Z,36.20
2022-11-30T01:22:08.009Z,33.90
2022-11-30T01:23:07.929Z,36.60
2022-11-30T01:24:07.933Z,37.20
2022-11-30T01:25:07.937Z,36.70
2022-11-30T01:26:07.910Z,37.20
2022-11-30T01:27:07.878Z,35.30
2022-11-30T01:28:07.955Z,35.90
2022-11-30T01:29:07.922Z,36.40
2022-11-30T01:30:07.881Z,38.50
2022-11-30T01:31:07.975Z,35.40
2022-11-30T01:32:07.857Z,33.10
2022-11-30T01:33:07.824Z,34.50
2022-11-30T01:34:07.888Z,33.30
2022-11-30T01:35:07.862Z,35.10
2022-11-30T01:36:07.847Z,33.90
2022-11-30T01:37:07.833Z,31.80
2022-11-30T01:38:07.827Z,31.70
2022-11-30T01:39:07.796Z,34.00
2022-11-30T01:40:07.889Z,33.40
2022-11-30T01:41:07.804Z,32.60
2022-11-30T01:42:07.808Z,34.50
2022-11-30T01:43:07.789Z,32.20
2022-11-30T01:44:07.768Z,33.10
2022-11-30T01:45:07.781Z,32.40
2022-11-30T01:46:07.852Z,35.50
2022-11-30T01:47:07.801Z,34.70
2022-11-30T01:48:07.734Z,33.70
2022-11-30T01:49:07.754Z,32.70
2022-11-30T01:50:07.727Z,34.60
2022-11-30T01:51:07.715Z,36.90
2022-11-30T01:52:08.210Z,35.60
2022-11-30T01:53:07.706Z,36.00
2022-11-30T01:54:07.700Z,33.50
2022-11-30T01:55:07.727Z,34.30
2022-11-30T01:56:07.688Z,32.70
2022-11-30T01:57:07.700Z,33.90
2022-11-30T01:58:07.718Z,33.60
2022-11-30T01:59:07.663Z,32.90
2022-11-30T02:00:07.653Z,32.50
2022-11-30T02:01:07.698Z,32.10
2022-11-30T02:02:07.664Z,33.40
2022-11-30T02:03:07.642Z,34.10
2022-11-30T02:04:07.667Z,34.10
2022-11-30T02:05:07.623Z,34.30
2022-11-30T02:06:07.640Z,31.40
2022-11-30T02:07:07.713Z,32.40
2022-11-30T02:08:07.662Z,32.80
2022-11-30T02:09:07.585Z,34.00
2022-11-30T02:10:07.615Z,35.70
2022-11-30T02:11:07.592Z,37.00
2022-11-30T02:12:07.571Z,39.00
2022-11-30T02:13:07.571Z,36.90
2022-11-30T02:14:07.587Z,38.70
2022-11-30T02:15:07.543Z,39.40
2022-11-30T02:16:07.710Z,37.70
2022-11-30T02:17:07.552Z,39.60
2022-11-30T02:18:07.538Z,40.30
2022-11-30T02:19:07.538Z,39.40
2022-11-30T02:20:07.520Z,38.70
2022-11-30T02:21:07.524Z,37.00
2022-11-30T02:22:07.567Z,36.10
2022-11-30T02:23:07.501Z,39.80
2022-11-30T02:24:07.515Z,39.40
2022-11-30T02:25:07.483Z,36.40
2022-11-30T02:26:07.480Z,39.10
2022-11-30T02:27:07.480Z,39.90
2022-11-30T02:28:07.516Z,37.30
2022-11-30T02:29:07.454Z,38.00
2022-11-30T02:30:07.453Z,40.30
2022-11-30T02:31:07.461Z,38.10
2022-11-30T02:32:07.422Z,38.50
2022-11-30T02:33:07.420Z,39.90
2022-11-30T02:34:07.483Z,39.20
2022-11-30T02:35:07.428Z,41.60
2022-11-30T02:36:07.402Z,40.70
2022-11-30T02:37:07.392Z,43.30
2022-11-30T02:38:07.409Z,40.90
2022-11-30T02:39:07.395Z,40.40
2022-11-30T02:40:07.430Z,39.40
2022-11-30T02:41:07.391Z,39.40
2022-11-30T02:42:07.365Z,39.00
2022-11-30T02:43:07.397Z,39.40
2022-11-30T02:44:07.361Z,37.30
2022-11-30T02:45:07.347Z,37.30
2022-11-30T02:46:07.459Z,35.60
2022-11-30T02:47:07.338Z,35.60
2022-11-30T02:48:07.344Z,35.10
2022-11-30T02:49:07.323Z,37.90
2022-11-30T02:50:07.353Z,35.90
2022-11-30T02:51:07.317Z,38.50
2022-11-30T02:52:07.795Z,36.90
2022-11-30T02:53:07.285Z,35.00
2022-11-30T02:54:07.282Z,32.40
2022-11-30T02:55:07.271Z,33.10
2022-11-30T02:56:07.289Z,33.90
2022-11-30T02:57:07.252Z,35.00
2022-11-30T02:58:07.322Z,33.50
2022-11-30T02:59:07.249Z,35.50
2022-11-30T03:00:07.251Z,33.80
2022-11-30T03:01:07.289Z,32.00
2022-11-30T03:02:07.243Z,31.60
2022-11-30T03:03:07.270Z,34.40
2022-11-30T03:04:07.264Z,32.60
2022-11-30T03:05:07.190Z,32.70
2022-11-30T03:06:07.272Z,33.60
2022-11-30T03:07:07.204Z,30.90
2022-11-30T03:08:07.166Z,32.10
2022-11-30T03:09:07.184Z,30.40
2022-11-30T03:10:07.239Z,32.10
2022-11-30T03:11:07.174Z,33.10
2022-11-30T03:12:07.158Z,35.90
2022-11-30T03:13:07.165Z,35.30
2022-11-30T03:14:07.145Z,35.00
2022-11-30T03:15:07.139Z,31.70
2022-11-30T03:16:07.250Z,33.00
2022-11-30T03:17:07.112Z,33.20
2022-11-30T03:18:07.114Z,32.90
2022-11-30T03:19:07.109Z,32.00
2022-11-30T03:20:07.097Z,32.70
2022-11-30T03:21:07.069Z,34.20
2022-11-30T03:22:07.141Z,34.20
2022-11-30T03:23:07.082Z,33.20
2022-11-30T03:24:07.082Z,34.40
2022-11-30T03:25:07.043Z,36.20
2022-11-30T03:26:07.033Z,38.90
2022-11-30T03:27:07.059Z,38.80
2022-11-30T03:28:07.096Z,35.20
2022-11-30T03:29:07.035Z,36.40
2022-11-30T03:30:07.035Z,37.80
2022-11-30T03:31:07.083Z,37.10
2022-11-30T03:32:07.005Z,38.20
2022-11-30T03:33:06.992Z,36.20
2022-11-30T03:34:07.041Z,37.00
2022-11-30T03:35:06.989Z,36.80
2022-11-30T03:36:06.995Z,36.30
2022-11-30T03:37:06.981Z,36.20
2022-11-30T03:38:06.978Z,35.20
2022-11-30T03:39:06.974Z,34.80
2022-11-30T03:40:07.047Z,35.80
2022-11-30T03:41:06.964Z,35.10
2022-11-30T03:42:06.942Z,36.00
2022-11-30T03:43:06.926Z,35.00
2022-11-30T03:44:06.921Z,34.40
2022-11-30T03:45:06.919Z,33.30
2022-11-30T03:46:06.992Z,37.10
2022-11-30T03:47:06.901Z,35.70
2022-11-30T03:48:06.900Z,34.90
2022-11-30T03:49:06.938Z,35.10
2022-11-30T03:50:06.867Z,35.60
2022-11-30T03:51:06.859Z,35.00
2022-11-30T03:52:06.913Z,34.70
2022-11-30T03:53:06.860Z,35.20
2022-11-30T03:54:06.853Z,34.80
2022-11-30T03:55:06.848Z,35.70
2022-11-30T03:56:06.838Z,35.10
2022-11-30T03:57:06.804Z,34.10
2022-11-30T03:58:07.279Z,35.10
2022-11-30T03:59:06.803Z,35.60
2022-11-30T04:00:06.827Z,37.40
2022-11-30T04:01:06.816Z,35.30
2022-11-30T04:02:06.827Z,34.90
2022-11-30T04:03:06.814Z,36.30
2022-11-30T04:04:06.825Z,35.10
2022-11-30T04:05:06.766Z,34.10
2022-11-30T04:06:06.748Z,31.90
2022-11-30T04:07:06.733Z,29.60
2022-11-30T04:08:06.741Z,31.10
2022-11-30T04:09:06.807Z,30.90
2022-11-30T04:10:08.582Z,30.00
2022-11-30T04:11:06.747Z,31.20
2022-11-30T04:12:06.725Z,31.30
2022-11-30T04:13:06.795Z,30.70
2022-11-30T04:14:06.685Z,30.30
2022-11-30T04:15:06.733Z,31.10
2022-11-30T04:16:06.787Z,31.80
2022-11-30T04:17:06.674Z,32.60
2022-11-30T04:18:06.658Z,33.10
2022-11-30T04:19:06.670Z,33.50
2022-11-30T04:20:06.657Z,35.40
2022-11-30T04:21:06.695Z,34.80
2022-11-30T04:22:06.717Z,32.60
2022-11-30T04:23:06.639Z,34.40
2022-11-30T04:24:06.654Z,32.00
2022-11-30T04:25:06.634Z,32.10
2022-11-30T04:26:06.618Z,31.00
2022-11-30T04:27:06.614Z,31.30
2022-11-30T04:28:06.646Z,29.80
2022-11-30T04:29:06.588Z,31.40
2022-11-30T04:30:06.601Z,30.70
2022-11-30T04:31:06.610Z,32.30
2022-11-30T04:32:06.590Z,31.10
2022-11-30T04:33:06.592Z,30.70
2022-11-30T04:34:06.605Z,30.20
2022-11-30T04:35:06.584Z,31.00
2022-11-30T04:36:06.566Z,29.70
2022-11-30T04:37:06.547Z,29.90
2022-11-30T04:38:06.550Z,28.00
2022-11-30T04:39:06.499Z,32.40
2022-11-30T04:40:06.607Z,34.00
2022-11-30T04:41:06.530Z,32.40
2022-11-30T04:42:06.533Z,33.30
2022-11-30T04:43:06.504Z,31.60
2022-11-30T04:44:06.500Z,33.60
2022-11-30T04:45:06.509Z,31.60
2022-11-30T04:46:06.548Z,30.50
2022-11-30T04:47:07.944Z,31.30
2022-11-30T04:48:06.486Z,30.60
2022-11-30T04:49:06.478Z,30.30
2022-11-30T04:50:06.457Z,29.50
2022-11-30T04:51:06.468Z,29.60
2022-11-30T04:52:06.532Z,31.60
2022-11-30T04:53:06.442Z,30.40
2022-11-30T04:54:06.426Z,27.60
2022-11-30T04:55:06.427Z,29.10
2022-11-30T04:56:06.418Z,28.10
2022-11-30T04:57:06.398Z,28.90
2022-11-30T04:58:06.478Z,30.30
2022-11-30T04:59:06.386Z,30.20
2022-11-30T05:00:06.397Z,31.00
2022-11-30T05:01:06.404Z,30.20
2022-11-30T05:02:06.379Z,30.20
2022-11-30T05:03:06.355Z,29.80
2022-11-30T05:04:06.527Z,29.50
2022-11-30T05:05:06.361Z,28.60
2022-11-30T05:06:06.352Z,29.50
2022-11-30T05:07:06.327Z,29.50
2022-11-30T05:08:06.312Z,29.80
2022-11-30T05:09:06.322Z,30.70
2022-11-30T05:10:06.366Z,29.90
2022-11-30T05:11:06.273Z,28.70
2022-11-30T05:12:06.374Z,27.90
2022-11-30T05:13:06.294Z,29.20
2022-11-30T05:14:06.283Z,30.40
2022-11-30T05:15:06.279Z,29.90
2022-11-30T05:16:06.386Z,32.50
2022-11-30T05:17:06.258Z,32.50
2022-11-30T05:18:06.239Z,30.00
2022-11-30T05:19:06.243Z,31.10
2022-11-30T05:20:06.228Z,30.10
2022-11-30T05:21:06.220Z,30.10
2022-11-30T05:22:06.259Z,33.80
2022-11-30T05:23:06.236Z,31.20
2022-11-30T05:24:06.208Z,30.80
2022-11-30T05:25:06.185Z,31.40
2022-11-30T05:26:06.196Z,31.10
2022-11-30T05:27:12.198Z,29.00
2022-11-30T05:28:07.214Z,29.70
2022-11-30T05:29:06.170Z,28.30
2022-11-30T05:30:06.167Z,28.20
2022-11-30T05:31:06.202Z,29.90
2022-11-30T05:32:06.167Z,29.70
2022-11-30T05:33:06.148Z,29.40
2022-11-30T05:34:06.232Z,31.90
2022-11-30T05:35:06.127Z,32.90
2022-11-30T05:36:10.728Z,30.30
2022-11-30T05:37:07.118Z,30.90
2022-11-30T05:38:06.107Z,30.80
2022-11-30T05:39:06.113Z,29.80
2022-11-30T05:40:06.170Z,28.30
2022-11-30T05:41:06.076Z,30.10
2022-11-30T05:42:06.084Z,29.80
2022-11-30T05:43:06.144Z,33.10
2022-11-30T05:44:06.089Z,33.00
2022-11-30T05:45:06.065Z,33.20
2022-11-30T05:46:06.110Z,32.60
2022-11-30T05:47:06.126Z,30.40
2022-11-30T05:48:06.045Z,30.50
2022-11-30T05:49:06.051Z,31.00
2022-11-30T05:50:06.033Z,31.20
2022-11-30T05:51:06.121Z,32.20
2022-11-30T05:52:06.037Z,31.00
2022-11-30T05:53:06.006Z,31.60
2022-11-30T05:54:05.977Z,32.60
2022-11-30T05:55:05.997Z,29.70
2022-11-30T05:56:05.965Z,29.60
2022-11-30T05:57:05.966Z,30.60
2022-11-30T05:58:06.026Z,29.20
2022-11-30T05:59:05.951Z,28.70
2022-11-30T06:00:05.945Z,29.10
2022-11-30T06:01:05.932Z,29.20
2022-11-30T06:02:06.052Z,29.50
2022-11-30T06:03:06.014Z,29.60
2022-11-30T06:04:08.903Z,28.20
2022-11-30T06:05:05.879Z,27.80
2022-11-30T06:06:05.902Z,30.00
2022-11-30T06:07:05.879Z,30.40
2022-11-30T06:08:05.882Z,30.10
2022-11-30T06:09:05.873Z,29.90
2022-11-30T06:10:06.052Z,31.10
2022-11-30T06:11:05.857Z,29.70
2022-11-30T06:12:05.870Z,31.70
2022-11-30T06:13:05.866Z,30.40
2022-11-30T06:14:05.836Z,30.50
2022-11-30T06:15:05.871Z,29.20
2022-11-30T06:16:05.910Z,30.40
2022-11-30T06:17:05.809Z,29.10
2022-11-30T06:18:05.812Z,32.80
2022-11-30T06:19:05.806Z,31.20
2022-11-30T06:20:05.805Z,31.80
2022-11-30T06:21:05.783Z,29.40
2022-11-30T06:22:05.852Z,29.40
2022-11-30T06:23:05.798Z,30.80
2022-11-30T06:24:05.763Z,31.30
2022-11-30T06:25:05.766Z,29.60
2022-11-30T06:26:05.742Z,31.80
2022-11-30T06:27:05.735Z,31.00
2022-11-30T06:28:05.796Z,30.30
2022-11-30T06:29:05.715Z,30.80
2022-11-30T06:30:05.729Z,31.10
2022-11-30T06:31:05.719Z,30.50
2022-11-30T06:32:05.724Z,30.70
2022-11-30T06:33:05.695Z,30.50
2022-11-30T06:34:05.751Z,31.40
2022-11-30T06:35:05.768Z,30.20
2022-11-30T06:36:05.683Z,30.80
2022-11-30T06:37:05.673Z,30.20
2022-11-30T06:38:05.664Z,31.40
2022-11-30T06:39:05.668Z,31.20
2022-11-30T06:40:07.332Z,30.10
2022-11-30T06:41:05.647Z,30.20
2022-11-30T06:42:05.642Z,30.70
2022-11-30T06:43:05.636Z,29.30
2022-11-30T06:44:05.626Z,28.80
2022-11-30T06:45:05.622Z,30.10
2022-11-30T06:46:05.748Z,31.30
2022-11-30T06:47:05.583Z,33.10
2022-11-30T06:48:05.591Z,42.80
2022-11-30T06:49:05.586Z,33.90
2022-11-30T06:50:05.593Z,33.30
2022-11-30T06:51:05.573Z,30.20
2022-11-30T06:52:05.656Z,29.60
2022-11-30T06:53:05.578Z,28.90
2022-11-30T06:54:05.562Z,31.90
2022-11-30T06:55:05.539Z,31.00
2022-11-30T06:56:09.892Z,30.60
2022-11-30T06:57:06.577Z,33.10
2022-11-30T06:58:05.517Z,32.10
2022-11-30T06:59:05.508Z,32.60
2022-11-30T07:00:05.551Z,31.10
2022-11-30T07:01:05.536Z,29.50
2022-11-30T07:02:09.732Z,29.80
2022-11-30T07:03:06.532Z,31.20
2022-11-30T07:04:05.555Z,30.90
2022-11-30T07:05:05.467Z,30.10
2022-11-30T07:06:05.461Z,31.50
2022-11-30T07:07:05.486Z,33.80
2022-11-30T07:08:05.463Z,32.10
2022-11-30T07:09:05.500Z,30.40
2022-11-30T07:10:05.458Z,30.80
2022-11-30T07:11:05.454Z,31.60
2022-11-30T07:12:05.434Z,31.40
2022-11-30T07:13:05.426Z,32.30
2022-11-30T07:14:05.436Z,34.80
2022-11-30T07:15:05.573Z,31.70
2022-11-30T07:16:05.513Z,31.80
2022-11-30T07:17:05.379Z,30.90
2022-11-30T07:18:05.390Z,31.50
2022-11-30T07:19:05.380Z,32.40
2022-11-30T07:20:05.387Z,33.20
2022-11-30T07:21:05.433Z,32.00
2022-11-30T07:22:05.363Z,33.20
2022-11-30T07:23:05.369Z,32.80
2022-11-30T07:24:05.336Z,31.40
2022-11-30T07:25:05.345Z,32.50
2022-11-30T07:26:05.338Z,34.00
2022-11-30T07:27:05.354Z,34.50
2022-11-30T07:28:05.316Z,36.00
2022-11-30T07:29:05.313Z,33.30
2022-11-30T07:30:05.282Z,33.70
2022-11-30T07:31:05.304Z,32.40
2022-11-30T07:32:05.359Z,32.20
2022-11-30T07:33:05.312Z,31.40
2022-11-30T07:34:05.274Z,37.90
2022-11-30T07:35:05.254Z,28.50
2022-11-30T07:36:05.271Z,28.20
2022-11-30T07:37:05.257Z,29.70
2022-11-30T07:38:09.587Z,29.60
2022-11-30T07:39:05.302Z,29.50
2022-11-30T07:40:05.256Z,28.80
2022-11-30T07:41:05.220Z,29.70
2022-11-30T07:42:05.224Z,29.30
2022-11-30T07:43:05.220Z,31.10
2022-11-30T07:44:05.206Z,30.30
2022-11-30T07:45:05.256Z,29.30
2022-11-30T07:46:05.230Z,32.60
2022-11-30T07:47:05.180Z,32.70
2022-11-30T07:48:05.197Z,31.10
2022-11-30T07:49:05.174Z,31.40
2022-11-30T07:50:05.193Z,30.20
2022-11-30T07:51:05.230Z,31.50
2022-11-30T07:52:05.163Z,30.90
2022-11-30T07:53:05.134Z,31.50
2022-11-30T07:54:05.128Z,33.00
2022-11-30T07:55:05.120Z,33.70
2022-11-30T07:56:05.139Z,33.50
2022-11-30T07:57:05.165Z,32.70
2022-11-30T07:58:05.106Z,32.40
2022-11-30T07:59:05.118Z,31.60
2022-11-30T08:00:05.094Z,32.40
2022-11-30T08:01:05.193Z,31.20
2022-11-30T08:02:05.199Z,32.50
2022-11-30T08:03:05.127Z,31.40
2022-11-30T08:04:05.077Z,32.40
2022-11-30T08:05:05.112Z,32.10
2022-11-30T08:06:05.044Z,30.00
2022-11-30T08:07:05.033Z,32.50
2022-11-30T08:08:05.025Z,31.90
2022-11-30T08:09:05.078Z,31.90
2022-11-30T08:10:05.037Z,31.40
2022-11-30T08:11:05.020Z,29.50
2022-11-30T08:12:05.007Z,28.60
2022-11-30T08:13:05.004Z,29.30
2022-11-30T08:14:05.015Z,29.60
2022-11-30T08:15:19.856Z,28.50
2022-11-30T08:16:05.977Z,31.10
2022-11-30T08:17:05.050Z,29.30
2022-11-30T08:18:04.973Z,29.20
2022-11-30T08:19:04.966Z,29.30
2022-11-30T08:20:04.968Z,27.90
2022-11-30T08:21:05.315Z,28.30
2022-11-30T08:22:04.945Z,28.10
2022-11-30T08:23:04.937Z,29.60
2022-11-30T08:24:04.953Z,26.60
2022-11-30T08:25:04.926Z,27.40
2022-11-30T08:26:04.917Z,29.80
2022-11-30T08:27:04.979Z,28.60
2022-11-30T08:28:04.917Z,27.80
2022-11-30T08:29:04.886Z,28.20
2022-11-30T08:30:04.895Z,29.40
2022-11-30T08:31:04.920Z,32.20
2022-11-30T08:32:04.866Z,29.00
2022-11-30T08:33:04.903Z,29.00
2022-11-30T08:34:04.856Z,29.30
2022-11-30T08:35:04.862Z,28.10
2022-11-30T08:36:04.847Z,28.60
2022-11-30T08:37:04.840Z,29.30
2022-11-30T08:38:04.825Z,28.40
2022-11-30T08:39:04.913Z,29.40
2022-11-30T08:40:04.817Z,29.70
2022-11-30T08:41:04.813Z,30.00
2022-11-30T08:42:04.802Z,30.30
2022-11-30T08:43:04.777Z,28.30
2022-11-30T08:44:04.805Z,28.60
2022-11-30T08:45:04.882Z,28.20
2022-11-30T08:46:21.158Z,27.60
2022-11-30T08:47:05.791Z,28.60
2022-11-30T08:48:04.750Z,28.20
2022-11-30T08:49:21.086Z,35.40
2022-11-30T08:50:05.795Z,36.00
2022-11-30T08:51:04.760Z,37.10
2022-11-30T08:52:20.107Z,37.50
2022-11-30T08:53:06.653Z,34.20
2022-11-30T08:54:04.707Z,28.20
2022-11-30T08:55:04.714Z,27.90
2022-11-30T08:56:04.757Z,27.00
2022-11-30T08:57:04.708Z,28.20
2022-11-30T08:58:04.683Z,26.80
2022-11-30T08:59:04.686Z,26.60
2022-11-30T09:00:04.689Z,25.60
2022-11-30T09:01:04.664Z,25.80
2022-11-30T09:02:04.713Z,29.90
2022-11-30T09:03:04.709Z,23.10
2022-11-30T09:04:04.670Z,21.70
2022-11-30T09:05:04.644Z,22.00
2022-11-30T09:06:04.629Z,21.20
2022-11-30T09:07:04.623Z,18.90
2022-11-30T09:08:04.680Z,18.60
2022-11-30T09:09:05.490Z,20.00
2022-11-30T09:10:04.626Z,20.80
2022-11-30T09:11:04.613Z,23.40
2022-11-30T09:12:04.605Z,22.20
2022-11-30T09:13:04.581Z,20.70
2022-11-30T09:14:04.617Z,20.90
2022-11-30T09:15:04.560Z,20.20
2022-11-30T09:16:04.602Z,20.40
2022-11-30T09:17:04.552Z,20.20
2022-11-30T09:18:04.545Z,20.20
2022-11-30T09:19:04.543Z,20.10
2022-11-30T09:20:04.587Z,20.60
2022-11-30T09:21:04.518Z,21.30
2022-11-30T09:22:04.531Z,21.60
2022-11-30T09:23:04.513Z,21.10
2022-11-30T09:24:04.494Z,20.70
2022-11-30T09:25:04.483Z,24.50
2022-11-30T09:26:04.765Z,26.00
2022-11-30T09:27:04.474Z,24.80
2022-11-30T09:28:09.291Z,25.30
2022-11-30T09:29:05.464Z,21.70
2022-11-30T09:30:04.447Z,25.40
2022-11-30T09:31:04.491Z,23.70
2022-11-30T09:32:04.494Z,25.00
2022-11-30T09:33:04.418Z,26.20
2022-11-30T09:34:04.427Z,27.60
2022-11-30T09:35:06.635Z,25.50
2022-11-30T09:36:05.409Z,29.70
2022-11-30T09:37:04.411Z,22.90
2022-11-30T09:38:04.426Z,25.10
2022-11-30T09:39:04.392Z,25.60
2022-11-30T09:40:04.376Z,20.40
2022-11-30T09:41:04.384Z,24.10
2022-11-30T09:42:04.356Z,23.70
2022-11-30T09:43:04.355Z,19.30
2022-11-30T09:44:04.403Z,19.30
2022-11-30T09:45:04.344Z,18.70
2022-11-30T09:46:04.425Z,18.30
2022-11-30T09:47:04.324Z,17.10
2022-11-30T09:48:04.324Z,17.60
2022-11-30T09:49:04.326Z,18.90
2022-11-30T09:50:04.386Z,17.80
2022-11-30T09:51:04.295Z,15.00
2022-11-30T09:52:04.284Z,16.60
2022-11-30T09:53:04.295Z,17.10
2022-11-30T09:54:04.279Z,17.90
2022-11-30T09:55:04.278Z,15.50
2022-11-30T09:56:04.301Z,16.70
2022-11-30T09:57:04.362Z,18.70
2022-11-30T09:58:04.234Z,16.30
2022-11-30T09:59:04.225Z,16.00
2022-11-30T10:00:04.222Z,16.20
2022-11-30T10:01:07.352Z,15.30
2022-11-30T10:02:04.323Z,14.70
2022-11-30T10:03:04.375Z,15.40
2022-11-30T10:04:04.204Z,15.00
2022-11-30T10:05:04.191Z,12.10
2022-11-30T10:06:04.181Z,12.30
2022-11-30T10:07:04.179Z,13.70
2022-11-30T10:08:04.289Z,14.40
2022-11-30T10:09:04.152Z,15.10
2022-11-30T10:10:34.129Z,15.20
2022-11-30T10:11:05.426Z,14.70
2022-11-30T10:12:04.328Z,15.40
2022-11-30T10:13:04.124Z,15.20
2022-11-30T10:14:04.174Z,15.20
2022-11-30T10:15:04.148Z,15.30
2022-11-30T10:16:04.199Z,16.00
2022-11-30T10:17:04.126Z,14.70
2022-11-30T10:18:04.107Z,15.70
2022-11-30T10:19:04.078Z,15.20
2022-11-30T10:20:04.154Z,15.40
2022-11-30T10:21:04.074Z,17.10
2022-11-30T10:22:04.063Z,16.10
2022-11-30T10:23:04.047Z,16.90
2022-11-30T10:24:04.057Z,16.70
2022-11-30T10:25:10.159Z,16.00
2022-11-30T10:26:05.212Z,15.10
2022-11-30T10:27:04.043Z,16.10
2022-11-30T10:28:23.984Z,17.10
2022-11-30T10:29:05.015Z,17.30
2022-11-30T10:30:04.001Z,17.40
2022-11-30T10:31:04.065Z,17.10
2022-11-30T10:32:04.076Z,16.70
2022-11-30T10:33:03.995Z,16.80
2022-11-30T10:34:03.983Z,17.70
2022-11-30T10:35:03.970Z,18.10
2022-11-30T10:36:03.965Z,17.30
2022-11-30T10:37:03.954Z,17.40
2022-11-30T10:38:04.008Z,16.20
2022-11-30T10:39:03.944Z,16.30
2022-11-30T10:40:03.936Z,14.60
2022-11-30T10:41:03.924Z,14.90
2022-11-30T10:42:03.919Z,14.70
2022-11-30T10:43:03.915Z,15.10
2022-11-30T10:44:03.966Z,15.20
2022-11-30T10:45:03.949Z,14.70
2022-11-30T10:46:03.908Z,13.80
2022-11-30T10:47:03.907Z,14.10
2022-11-30T10:48:03.875Z,15.50
2022-11-30T10:49:03.885Z,15.10
2022-11-30T10:50:03.907Z,14.40
2022-11-30T10:51:03.848Z,14.30
2022-11-30T10:52:03.880Z,14.70
2022-11-30T10:53:03.847Z,14.90
2022-11-30T10:54:03.830Z,14.50
2022-11-30T10:55:05.149Z,14.30
2022-11-30T10:56:03.875Z,14.70
2022-11-30T10:57:03.836Z,14.00
2022-11-30T10:58:03.816Z,13.70
2022-11-30T10:59:03.807Z,14.70
2022-11-30T11:00:03.794Z,14.40
2022-11-30T11:01:03.800Z,14.60
2022-11-30T11:02:03.863Z,15.80
2022-11-30T11:03:03.858Z,15.10
2022-11-30T11:04:03.850Z,16.90
2022-11-30T11:05:03.765Z,15.30
2022-11-30T11:06:03.755Z,14.60
2022-11-30T11:07:03.788Z,14.50
2022-11-30T11:08:07.258Z,15.20
2022-11-30T11:09:03.743Z,16.10
2022-11-30T11:10:03.724Z,15.30
2022-11-30T11:11:03.747Z,14.80
2022-11-30T11:12:03.701Z,14.60
2022-11-30T11:13:03.707Z,15.40
2022-11-30T11:14:03.747Z,14.30
2022-11-30T11:15:03.704Z,15.70
2022-11-30T11:16:03.707Z,13.70
2022-11-30T11:17:03.684Z,15.90
2022-11-30T11:18:03.684Z,16.30
2022-11-30T11:19:03.663Z,15.70
2022-11-30T11:20:03.704Z,15.20
2022-11-30T11:21:06.284Z,14.50
2022-11-30T11:22:03.644Z,15.20
2022-11-30T11:23:03.611Z,16.10
2022-11-30T11:24:03.635Z,14.70
2022-11-30T11:25:03.623Z,15.70
2022-11-30T11:26:03.667Z,16.20
2022-11-30T11:27:03.605Z,16.30
2022-11-30T11:28:03.586Z,14.90
2022-11-30T11:29:03.587Z,15.30
2022-11-30T11:30:03.564Z,14.40
2022-11-30T11:31:03.658Z,13.80
2022-11-30T11:32:03.837Z,14.40
2022-11-30T11:33:03.568Z,14.20
2022-11-30T11:34:03.548Z,14.40
2022-11-30T11:35:03.547Z,15.10
2022-11-30T11:36:03.535Z,14.10
2022-11-30T11:37:03.527Z,15.00
2022-11-30T11:38:03.584Z,15.30
2022-11-30T11:39:03.573Z,14.50
2022-11-30T11:40:03.504Z,14.40
2022-11-30T11:41:03.502Z,13.30
2022-11-30T11:42:03.507Z,14.40
2022-11-30T11:43:03.470Z,13.80
2022-11-30T11:44:03.551Z,12.80
2022-11-30T11:45:03.479Z,13.70
2022-11-30T11:46:03.526Z,13.50
2022-11-30T11:47:03.489Z,13.00
2022-11-30T11:48:03.440Z,14.00
2022-11-30T11:49:03.464Z,13.50
2022-11-30T11:50:03.478Z,14.60
2022-11-30T11:51:07.802Z,14.10
2022-11-30T11:52:03.418Z,13.90
2022-11-30T11:53:03.424Z,13.10
2022-11-30T11:54:03.466Z,13.50
2022-11-30T11:55:03.414Z,15.60
2022-11-30T11:56:03.435Z,18.00
2022-11-30T11:57:03.380Z,16.80
2022-11-30T11:58:03.376Z,15.90
2022-11-30T11:59:03.393Z,17.90
2022-11-30T12:00:03.384Z,18.40
2022-11-30T12:01:31.566Z,15.50
2022-11-30T12:02:04.379Z,13.70
2022-11-30T12:03:03.403Z,15.60
2022-11-30T12:04:03.344Z,16.90
2022-11-30T12:05:03.325Z,17.10
2022-11-30T12:06:03.362Z,15.50
2022-11-30T12:07:03.349Z,14.50
2022-11-30T12:08:03.394Z,16.10
2022-11-30T12:09:03.295Z,14.30
2022-11-30T12:10:03.295Z,16.30
2022-11-30T12:11:03.284Z,16.10
2022-11-30T12:12:03.306Z,14.30
2022-11-30T12:13:03.265Z,14.20
2022-11-30T12:14:03.323Z,13.80
2022-11-30T12:15:03.245Z,13.80
2022-11-30T12:16:03.273Z,13.80
2022-11-30T12:17:03.243Z,13.70
2022-11-30T12:18:03.226Z,13.70
2022-11-30T12:19:03.216Z,13.80
2022-11-30T12:20:03.263Z,14.60
2022-11-30T12:21:03.241Z,13.30
2022-11-30T12:22:03.218Z,14.10
2022-11-30T12:23:03.194Z,14.10
2022-11-30T12:24:03.198Z,14.40
2022-11-30T12:25:06.195Z,13.60
2022-11-30T12:26:03.213Z,15.40
2022-11-30T12:27:03.169Z,16.00
2022-11-30T12:28:03.150Z,13.70
2022-11-30T12:29:03.144Z,14.00
2022-11-30T12:30:03.144Z,13.60
2022-11-30T12:31:03.163Z,13.40
2022-11-30T12:32:03.174Z,15.50
2022-11-30T12:33:03.134Z,15.20
2022-11-30T12:34:03.112Z,15.30
2022-11-30T12:35:03.126Z,16.00
2022-11-30T12:36:03.106Z,18.10
2022-11-30T12:37:03.089Z,16.20
2022-11-30T12:38:03.350Z,15.30
2022-11-30T12:39:03.059Z,13.90
2022-11-30T12:40:03.075Z,13.80
2022-11-30T12:41:03.075Z,16.60
2022-11-30T12:42:03.056Z,14.30
2022-11-30T12:43:03.037Z,13.10
2022-11-30T12:44:03.093Z,12.70
2022-11-30T12:45:03.024Z,12.60
2022-11-30T12:46:03.021Z,13.40
2022-11-30T12:47:03.047Z,13.60
2022-11-30T12:48:03.068Z,11.70
2022-11-30T12:49:03.071Z,11.70
2022-11-30T12:50:03.118Z,13.30
2022-11-30T12:51:03.038Z,12.90
2022-11-30T12:52:02.956Z,12.60